sensor_id;sensor_type;location;lat;lon;timestamp;P1;durP1;ratioP1;P2;durP2;ratioP2
24161;SDS011;12318;51.262;7.066;2023-02-08T00:01:18;11.38;;;5.85;;
24161;SDS011;12318;51.262;7.066;2023-02-08T00:03:46;12.35;;;6.75;;
24161;SDS011;12318;51.262;7.066;2023-02-08T00:06:18;13.07;;;6.70;;
24161;SDS011;12318;51.262;7.066;2023-02-08T00:08:44;11.50;;;5.85;;
24161;SDS011;12318;51.262;7.066;2023-02-08T00:11:10;12.38;;;6.68;;
24161;SDS011;12318;51.262;7.066;2023-02-08T00:13:37;13.60;;;6.55;;
24161;SDS011;12318;51.262;7.066;2023-02-08T00:16:14;16.05;;;7.10;;
24161;SDS011;12318;51.262;7.066;2023-02-08T00:18:40;14.20;;;6.53;;
24161;SDS011;12318;51.262;7.066;2023-02-08T00:21:07;13.50;;;6.55;;
24161;SDS011;12318;51.262;7.066;2023-02-08T00:23:35;13.77;;;6.80;;
24161;SDS011;12318;51.262;7.066;2023-02-08T00:26:04;10.80;;;6.45;;
24161;SDS011;12318;51.262;7.066;2023-02-08T00:28:30;12.80;;;7.13;;
24161;SDS011;12318;51.262;7.066;2023-02-08T00:30:58;12.30;;;6.97;;
24161;SDS011;12318;51.262;7.066;2023-02-08T00:33:24;14.82;;;6.60;;
24161;SDS011;12318;51.262;7.066;2023-02-08T00:35:50;12.63;;;7.03;;
24161;SDS011;12318;51.262;7.066;2023-02-08T00:38:16;11.07;;;6.82;;
24161;SDS011;12318;51.262;7.066;2023-02-08T00:40:42;12.52;;;6.15;;
24161;SDS011;12318;51.262;7.066;2023-02-08T00:43:08;10.98;;;6.30;;
24161;SDS011;12318;51.262;7.066;2023-02-08T00:45:34;15.55;;;6.72;;
24161;SDS011;12318;51.262;7.066;2023-02-08T00:47:59;11.70;;;6.72;;
24161;SDS011;12318;51.262;7.066;2023-02-08T00:50:25;12.18;;;6.68;;
24161;SDS011;12318;51.262;7.066;2023-02-08T00:52:51;14.50;;;6.78;;
24161;SDS011;12318;51.262;7.066;2023-02-08T00:55:17;11.68;;;7.03;;
24161;SDS011;12318;51.262;7.066;2023-02-08T00:57:42;13.70;;;6.82;;
24161;SDS011;12318;51.262;7.066;2023-02-08T01:00:08;14.68;;;7.15;;
24161;SDS011;12318;51.262;7.066;2023-02-08T01:02:37;11.68;;;7.32;;
24161;SDS011;12318;51.262;7.066;2023-02-08T01:05:05;12.75;;;6.53;;
24161;SDS011;12318;51.262;7.066;2023-02-08T01:07:31;12.07;;;6.57;;
24161;SDS011;12318;51.262;7.066;2023-02-08T01:09:57;13.73;;;6.47;;
24161;SDS011;12318;51.262;7.066;2023-02-08T01:12:24;11.63;;;6.63;;
24161;SDS011;12318;51.262;7.066;2023-02-08T01:14:50;12.20;;;6.95;;
24161;SDS011;12318;51.262;7.066;2023-02-08T01:17:16;13.35;;;7.03;;
24161;SDS011;12318;51.262;7.066;2023-02-08T01:19:42;10.35;;;6.43;;
24161;SDS011;12318;51.262;7.066;2023-02-08T01:22:07;11.68;;;6.65;;
24161;SDS011;12318;51.262;7.066;2023-02-08T01:24:36;13.70;;;7.45;;
24161;SDS011;12318;51.262;7.066;2023-02-08T01:27:02;10.77;;;6.30;;
24161;SDS011;12318;51.262;7.066;2023-02-08T01:29:28;11.73;;;6.40;;
24161;SDS011;12318;51.262;7.066;2023-02-08T01:31:54;10.23;;;6.07;;
24161;SDS011;12318;51.262;7.066;2023-02-08T01:34:21;10.98;;;6.45;;
24161;SDS011;12318;51.262;7.066;2023-02-08T01:36:46;10.90;;;6.65;;
24161;SDS011;12318;51.262;7.066;2023-02-08T01:39:12;10.82;;;6.63;;
24161;SDS011;12318;51.262;7.066;2023-02-08T01:41:40;9.63;;;6.38;;
24161;SDS011;12318;51.262;7.066;2023-02-08T01:46:47;12.32;;;6.90;;
24161;SDS011;12318;51.262;7.066;2023-02-08T01:51:47;11.90;;;6.63;;
24161;SDS011;12318;51.262;7.066;2023-02-08T01:54:17;9.82;;;5.85;;
24161;SDS011;12318;51.262;7.066;2023-02-08T01:56:46;11.20;;;5.50;;
24161;SDS011;12318;51.262;7.066;2023-02-08T01:59:19;11.80;;;6.18;;
24161;SDS011;12318;51.262;7.066;2023-02-08T02:02:07;10.13;;;5.82;;
24161;SDS011;12318;51.262;7.066;2023-02-08T02:04:37;9.00;;;5.85;;
24161;SDS011;12318;51.262;7.066;2023-02-08T02:07:03;11.13;;;6.68;;
24161;SDS011;12318;51.262;7.066;2023-02-08T02:09:52;13.02;;;5.68;;
24161;SDS011;12318;51.262;7.066;2023-02-08T02:12:23;9.27;;;5.72;;
24161;SDS011;12318;51.262;7.066;2023-02-08T02:14:50;9.10;;;5.30;;
24161;SDS011;12318;51.262;7.066;2023-02-08T02:17:16;12.65;;;6.05;;
24161;SDS011;12318;51.262;7.066;2023-02-08T02:24:55;10.40;;;6.35;;
24161;SDS011;12318;51.262;7.066;2023-02-08T02:27:37;13.43;;;6.28;;
24161;SDS011;12318;51.262;7.066;2023-02-08T02:35:59;12.35;;;6.45;;
24161;SDS011;12318;51.262;7.066;2023-02-08T02:44:34;11.52;;;5.15;;
24161;SDS011;12318;51.262;7.066;2023-02-08T02:49:52;8.70;;;5.20;;
24161;SDS011;12318;51.262;7.066;2023-02-08T02:52:28;11.15;;;5.10;;
24161;SDS011;12318;51.262;7.066;2023-02-08T02:55:06;9.27;;;5.22;;
24161;SDS011;12318;51.262;7.066;2023-02-08T02:57:37;9.68;;;5.18;;
24161;SDS011;12318;51.262;7.066;2023-02-08T03:00:09;11.48;;;5.65;;
24161;SDS011;12318;51.262;7.066;2023-02-08T03:02:37;12.40;;;6.05;;
24161;SDS011;12318;51.262;7.066;2023-02-08T03:05:05;13.55;;;7.53;;
24161;SDS011;12318;51.262;7.066;2023-02-08T03:18:42;10.18;;;5.57;;
24161;SDS011;12318;51.262;7.066;2023-02-08T03:27:03;10.43;;;5.90;;
24161;SDS011;12318;51.262;7.066;2023-02-08T03:32:08;11.45;;;5.97;;
24161;SDS011;12318;51.262;7.066;2023-02-08T03:37:20;10.30;;;5.53;;
24161;SDS011;12318;51.262;7.066;2023-02-08T03:39:52;10.07;;;5.40;;
24161;SDS011;12318;51.262;7.066;2023-02-08T03:42:24;10.45;;;5.15;;
24161;SDS011;12318;51.262;7.066;2023-02-08T03:44:58;8.27;;;4.95;;
24161;SDS011;12318;51.262;7.066;2023-02-08T03:47:31;10.95;;;5.22;;
24161;SDS011;12318;51.262;7.066;2023-02-08T03:50:00;8.82;;;4.72;;
24161;SDS011;12318;51.262;7.066;2023-02-08T03:52:30;8.55;;;4.88;;
24161;SDS011;12318;51.262;7.066;2023-02-08T03:55:00;10.57;;;4.97;;
24161;SDS011;12318;51.262;7.066;2023-02-08T03:57:47;11.18;;;4.85;;
24161;SDS011;12318;51.262;7.066;2023-02-08T04:02:49;13.32;;;4.97;;
24161;SDS011;12318;51.262;7.066;2023-02-08T04:05:21;8.32;;;5.10;;
24161;SDS011;12318;51.262;7.066;2023-02-08T04:07:48;9.13;;;4.65;;
24161;SDS011;12318;51.262;7.066;2023-02-08T04:10:15;13.77;;;5.90;;
24161;SDS011;12318;51.262;7.066;2023-02-08T04:12:41;11.93;;;5.50;;
24161;SDS011;12318;51.262;7.066;2023-02-08T04:15:11;7.78;;;4.90;;
24161;SDS011;12318;51.262;7.066;2023-02-08T04:17:36;10.35;;;4.97;;
24161;SDS011;12318;51.262;7.066;2023-02-08T04:20:02;13.10;;;5.40;;
24161;SDS011;12318;51.262;7.066;2023-02-08T04:22:29;8.13;;;5.03;;
24161;SDS011;12318;51.262;7.066;2023-02-08T04:24:57;8.75;;;5.10;;
24161;SDS011;12318;51.262;7.066;2023-02-08T04:27:23;8.93;;;4.85;;
24161;SDS011;12318;51.262;7.066;2023-02-08T04:29:52;10.65;;;5.53;;
24161;SDS011;12318;51.262;7.066;2023-02-08T04:32:17;9.82;;;4.82;;
24161;SDS011;12318;51.262;7.066;2023-02-08T04:34:43;10.98;;;6.15;;
24161;SDS011;12318;51.262;7.066;2023-02-08T04:37:09;9.50;;;5.30;;
24161;SDS011;12318;51.262;7.066;2023-02-08T04:39:36;9.63;;;4.90;;
24161;SDS011;12318;51.262;7.066;2023-02-08T04:42:01;9.63;;;4.50;;
24161;SDS011;12318;51.262;7.066;2023-02-08T04:44:27;9.45;;;5.13;;
24161;SDS011;12318;51.262;7.066;2023-02-08T04:46:55;10.98;;;5.30;;
24161;SDS011;12318;51.262;7.066;2023-02-08T04:49:21;10.77;;;5.10;;
24161;SDS011;12318;51.262;7.066;2023-02-08T04:51:48;8.30;;;5.00;;
24161;SDS011;12318;51.262;7.066;2023-02-08T04:54:14;9.55;;;4.70;;
24161;SDS011;12318;51.262;7.066;2023-02-08T04:56:40;9.93;;;5.35;;
24161;SDS011;12318;51.262;7.066;2023-02-08T04:59:06;8.98;;;4.38;;
24161;SDS011;12318;51.262;7.066;2023-02-08T05:01:32;9.20;;;4.55;;
24161;SDS011;12318;51.262;7.066;2023-02-08T05:03:57;8.30;;;4.85;;
24161;SDS011;12318;51.262;7.066;2023-02-08T05:06:23;9.45;;;4.25;;
24161;SDS011;12318;51.262;7.066;2023-02-08T05:08:49;8.40;;;4.38;;
24161;SDS011;12318;51.262;7.066;2023-02-08T05:11:22;8.32;;;4.30;;
24161;SDS011;12318;51.262;7.066;2023-02-08T05:13:49;7.72;;;4.22;;
24161;SDS011;12318;51.262;7.066;2023-02-08T05:16:15;9.65;;;5.00;;
24161;SDS011;12318;51.262;7.066;2023-02-08T05:18:41;8.40;;;3.88;;
24161;SDS011;12318;51.262;7.066;2023-02-08T05:21:08;9.55;;;4.78;;
24161;SDS011;12318;51.262;7.066;2023-02-08T05:23:36;7.13;;;4.30;;
24161;SDS011;12318;51.262;7.066;2023-02-08T05:26:09;7.15;;;3.95;;
24161;SDS011;12318;51.262;7.066;2023-02-08T05:28:35;10.10;;;4.50;;
24161;SDS011;12318;51.262;7.066;2023-02-08T05:31:13;11.55;;;4.53;;
24161;SDS011;12318;51.262;7.066;2023-02-08T05:36:09;7.32;;;4.57;;
24161;SDS011;12318;51.262;7.066;2023-02-08T05:38:35;9.52;;;4.22;;
24161;SDS011;12318;51.262;7.066;2023-02-08T05:41:01;7.78;;;4.28;;
24161;SDS011;12318;51.262;7.066;2023-02-08T05:43:27;10.23;;;4.40;;
24161;SDS011;12318;51.262;7.066;2023-02-08T05:45:53;9.68;;;4.43;;
24161;SDS011;12318;51.262;7.066;2023-02-08T05:48:18;8.00;;;4.05;;
24161;SDS011;12318;51.262;7.066;2023-02-08T05:50:44;9.15;;;4.53;;
24161;SDS011;12318;51.262;7.066;2023-02-08T05:53:10;10.57;;;4.50;;
24161;SDS011;12318;51.262;7.066;2023-02-08T05:55:36;8.65;;;4.30;;
24161;SDS011;12318;51.262;7.066;2023-02-08T05:58:02;9.07;;;4.72;;
24161;SDS011;12318;51.262;7.066;2023-02-08T06:00:28;8.10;;;4.43;;
24161;SDS011;12318;51.262;7.066;2023-02-08T06:02:53;14.63;;;5.15;;
24161;SDS011;12318;51.262;7.066;2023-02-08T06:05:21;10.13;;;4.95;;
24161;SDS011;12318;51.262;7.066;2023-02-08T06:07:47;10.00;;;4.88;;
24161;SDS011;12318;51.262;7.066;2023-02-08T06:10:12;8.90;;;4.75;;
24161;SDS011;12318;51.262;7.066;2023-02-08T06:12:38;10.85;;;4.82;;
24161;SDS011;12318;51.262;7.066;2023-02-08T06:15:04;12.00;;;4.68;;
24161;SDS011;12318;51.262;7.066;2023-02-08T06:17:33;13.45;;;5.45;;
24161;SDS011;12318;51.262;7.066;2023-02-08T06:19:59;14.23;;;5.85;;
24161;SDS011;12318;51.262;7.066;2023-02-08T06:22:24;9.82;;;5.07;;
24161;SDS011;12318;51.262;7.066;2023-02-08T06:24:50;8.95;;;4.90;;
24161;SDS011;12318;51.262;7.066;2023-02-08T06:27:16;13.43;;;5.28;;
24161;SDS011;12318;51.262;7.066;2023-02-08T06:29:42;9.65;;;4.75;;
24161;SDS011;12318;51.262;7.066;2023-02-08T06:32:07;8.63;;;4.70;;
24161;SDS011;12318;51.262;7.066;2023-02-08T06:34:33;12.80;;;5.63;;
24161;SDS011;12318;51.262;7.066;2023-02-08T06:36:59;15.25;;;5.53;;
24161;SDS011;12318;51.262;7.066;2023-02-08T06:39:26;11.15;;;5.25;;
24161;SDS011;12318;51.262;7.066;2023-02-08T06:41:53;10.52;;;4.82;;
24161;SDS011;12318;51.262;7.066;2023-02-08T06:44:19;8.32;;;4.68;;
24161;SDS011;12318;51.262;7.066;2023-02-08T06:46:45;13.02;;;5.25;;
24161;SDS011;12318;51.262;7.066;2023-02-08T06:49:10;13.25;;;5.22;;
24161;SDS011;12318;51.262;7.066;2023-02-08T06:51:36;10.82;;;4.63;;
24161;SDS011;12318;51.262;7.066;2023-02-08T06:54:02;7.95;;;4.70;;
24161;SDS011;12318;51.262;7.066;2023-02-08T06:56:28;7.03;;;4.20;;
24161;SDS011;12318;51.262;7.066;2023-02-08T06:58:54;13.38;;;4.70;;
24161;SDS011;12318;51.262;7.066;2023-02-08T07:01:21;10.68;;;5.05;;
24161;SDS011;12318;51.262;7.066;2023-02-08T07:03:46;7.35;;;4.68;;
24161;SDS011;12318;51.262;7.066;2023-02-08T07:06:13;10.63;;;5.05;;
24161;SDS011;12318;51.262;7.066;2023-02-08T07:08:39;9.63;;;5.18;;
24161;SDS011;12318;51.262;7.066;2023-02-08T07:11:09;11.02;;;4.90;;
24161;SDS011;12318;51.262;7.066;2023-02-08T07:13:37;8.05;;;4.60;;
24161;SDS011;12318;51.262;7.066;2023-02-08T07:16:06;7.97;;;4.63;;
24161;SDS011;12318;51.262;7.066;2023-02-08T07:18:33;18.52;;;5.00;;
24161;SDS011;12318;51.262;7.066;2023-02-08T07:20:59;14.70;;;5.35;;
24161;SDS011;12318;51.262;7.066;2023-02-08T07:23:25;14.43;;;5.28;;
24161;SDS011;12318;51.262;7.066;2023-02-08T07:28:28;12.63;;;4.90;;
24161;SDS011;12318;51.262;7.066;2023-02-08T07:30:54;13.90;;;5.65;;
24161;SDS011;12318;51.262;7.066;2023-02-08T07:33:20;15.85;;;6.65;;
24161;SDS011;12318;51.262;7.066;2023-02-08T07:35:46;13.25;;;5.93;;
24161;SDS011;12318;51.262;7.066;2023-02-08T07:38:12;13.25;;;6.05;;
24161;SDS011;12318;51.262;7.066;2023-02-08T07:40:38;15.63;;;5.53;;
24161;SDS011;12318;51.262;7.066;2023-02-08T07:43:04;12.60;;;5.65;;
24161;SDS011;12318;51.262;7.066;2023-02-08T07:49:02;17.58;;;6.75;;
24161;SDS011;12318;51.262;7.066;2023-02-08T07:51:31;13.13;;;5.68;;
24161;SDS011;12318;51.262;7.066;2023-02-08T07:54:22;19.73;;;6.57;;
24161;SDS011;12318;51.262;7.066;2023-02-08T07:56:52;16.70;;;7.93;;
24161;SDS011;12318;51.262;7.066;2023-02-08T07:59:18;28.80;;;12.20;;
24161;SDS011;12318;51.262;7.066;2023-02-08T08:05:15;31.38;;;12.20;;
24161;SDS011;12318;51.262;7.066;2023-02-08T08:07:40;18.38;;;7.80;;
24161;SDS011;12318;51.262;7.066;2023-02-08T08:10:14;17.88;;;7.68;;
24161;SDS011;12318;51.262;7.066;2023-02-08T08:12:40;17.45;;;7.32;;
24161;SDS011;12318;51.262;7.066;2023-02-08T08:15:09;13.13;;;6.03;;
24161;SDS011;12318;51.262;7.066;2023-02-08T08:17:38;13.55;;;6.97;;
24161;SDS011;12318;51.262;7.066;2023-02-08T08:20:08;19.65;;;7.05;;
24161;SDS011;12318;51.262;7.066;2023-02-08T08:22:35;19.67;;;7.18;;
24161;SDS011;12318;51.262;7.066;2023-02-08T08:25:01;18.92;;;9.15;;
24161;SDS011;12318;51.262;7.066;2023-02-08T08:27:27;13.60;;;6.40;;
24161;SDS011;12318;51.262;7.066;2023-02-08T08:29:53;12.15;;;5.72;;
24161;SDS011;12318;51.262;7.066;2023-02-08T08:32:28;17.92;;;6.50;;
24161;SDS011;12318;51.262;7.066;2023-02-08T08:34:54;9.38;;;5.05;;
24161;SDS011;12318;51.262;7.066;2023-02-08T08:37:20;15.13;;;6.50;;
24161;SDS011;12318;51.262;7.066;2023-02-08T08:39:46;17.02;;;7.40;;
24161;SDS011;12318;51.262;7.066;2023-02-08T08:45:44;12.77;;;5.53;;
24161;SDS011;12318;51.262;7.066;2023-02-08T08:55:16;13.90;;;5.22;;
24161;SDS011;12318;51.262;7.066;2023-02-08T08:57:56;11.88;;;5.93;;
24161;SDS011;12318;51.262;7.066;2023-02-08T09:00:47;12.68;;;5.50;;
24161;SDS011;12318;51.262;7.066;2023-02-08T09:04:01;11.45;;;5.40;;
24161;SDS011;12318;51.262;7.066;2023-02-08T09:06:38;14.43;;;6.20;;
24161;SDS011;12318;51.262;7.066;2023-02-08T09:09:12;14.07;;;6.28;;
24161;SDS011;12318;51.262;7.066;2023-02-08T09:12:47;13.38;;;5.75;;
24161;SDS011;12318;51.262;7.066;2023-02-08T09:15:46;12.27;;;5.82;;
24161;SDS011;12318;51.262;7.066;2023-02-08T09:18:13;16.98;;;6.22;;
24161;SDS011;12318;51.262;7.066;2023-02-08T09:20:41;10.93;;;5.85;;
24161;SDS011;12318;51.262;7.066;2023-02-08T09:23:07;12.90;;;5.82;;
24161;SDS011;12318;51.262;7.066;2023-02-08T09:28:47;15.18;;;5.10;;
24161;SDS011;12318;51.262;7.066;2023-02-08T09:31:24;10.38;;;5.68;;
24161;SDS011;12318;51.262;7.066;2023-02-08T09:33:56;11.63;;;5.30;;
24161;SDS011;12318;51.262;7.066;2023-02-08T09:36:25;12.95;;;4.93;;
24161;SDS011;12318;51.262;7.066;2023-02-08T09:38:56;9.30;;;4.82;;
24161;SDS011;12318;51.262;7.066;2023-02-08T09:54:55;7.23;;;3.50;;
24161;SDS011;12318;51.262;7.066;2023-02-08T09:57:48;8.27;;;3.55;;
24161;SDS011;12318;51.262;7.066;2023-02-08T10:00:50;6.45;;;3.42;;
24161;SDS011;12318;51.262;7.066;2023-02-08T10:07:09;8.73;;;2.80;;
24161;SDS011;12318;51.262;7.066;2023-02-08T10:09:36;7.78;;;3.22;;
24161;SDS011;12318;51.262;7.066;2023-02-08T10:14:49;5.70;;;2.78;;
24161;SDS011;12318;51.262;7.066;2023-02-08T10:23:38;6.53;;;3.20;;
24161;SDS011;12318;51.262;7.066;2023-02-08T10:36:39;9.38;;;3.00;;
24161;SDS011;12318;51.262;7.066;2023-02-08T10:39:27;5.32;;;3.08;;
24161;SDS011;12318;51.262;7.066;2023-02-08T10:41:56;2.78;;;1.73;;
24161;SDS011;12318;51.262;7.066;2023-02-08T10:44:25;4.05;;;2.30;;
24161;SDS011;12318;51.262;7.066;2023-02-08T10:47:16;7.88;;;1.92;;
24161;SDS011;12318;51.262;7.066;2023-02-08T10:50:06;3.95;;;2.03;;
24161;SDS011;12318;51.262;7.066;2023-02-08T10:52:45;3.90;;;2.15;;
24161;SDS011;12318;51.262;7.066;2023-02-08T10:55:16;3.17;;;2.03;;
24161;SDS011;12318;51.262;7.066;2023-02-08T10:57:44;5.10;;;2.20;;
24161;SDS011;12318;51.262;7.066;2023-02-08T11:02:45;3.58;;;2.10;;
24161;SDS011;12318;51.262;7.066;2023-02-08T11:05:19;4.78;;;2.13;;
24161;SDS011;12318;51.262;7.066;2023-02-08T11:08:05;5.45;;;2.25;;
24161;SDS011;12318;51.262;7.066;2023-02-08T11:10:34;3.58;;;2.10;;
24161;SDS011;12318;51.262;7.066;2023-02-08T11:13:05;4.38;;;2.42;;
24161;SDS011;12318;51.262;7.066;2023-02-08T11:18:32;4.93;;;2.20;;
24161;SDS011;12318;51.262;7.066;2023-02-08T11:23:31;2.50;;;1.67;;
24161;SDS011;12318;51.262;7.066;2023-02-08T11:28:39;3.80;;;2.08;;
24161;SDS011;12318;51.262;7.066;2023-02-08T11:31:17;3.22;;;1.95;;
24161;SDS011;12318;51.262;7.066;2023-02-08T11:36:24;4.35;;;2.15;;
24161;SDS011;12318;51.262;7.066;2023-02-08T11:38:50;8.15;;;2.42;;
24161;SDS011;12318;51.262;7.066;2023-02-08T11:41:17;4.90;;;2.30;;
24161;SDS011;12318;51.262;7.066;2023-02-08T11:43:55;3.38;;;2.22;;
24161;SDS011;12318;51.262;7.066;2023-02-08T11:46:29;3.53;;;2.03;;
24161;SDS011;12318;51.262;7.066;2023-02-08T11:48:59;3.42;;;1.92;;
24161;SDS011;12318;51.262;7.066;2023-02-08T11:53:55;2.70;;;1.70;;
24161;SDS011;12318;51.262;7.066;2023-02-08T11:56:24;3.03;;;1.90;;
24161;SDS011;12318;51.262;7.066;2023-02-08T12:01:24;5.53;;;1.92;;
24161;SDS011;12318;51.262;7.066;2023-02-08T12:03:53;3.60;;;2.00;;
24161;SDS011;12318;51.262;7.066;2023-02-08T12:09:26;4.32;;;1.98;;
24161;SDS011;12318;51.262;7.066;2023-02-08T12:20:31;3.58;;;2.28;;
24161;SDS011;12318;51.262;7.066;2023-02-08T12:29:09;4.85;;;2.35;;
24161;SDS011;12318;51.262;7.066;2023-02-08T12:32:02;7.93;;;2.10;;
24161;SDS011;12318;51.262;7.066;2023-02-08T12:38:06;4.80;;;2.40;;
24161;SDS011;12318;51.262;7.066;2023-02-08T12:44:02;3.10;;;2.00;;
24161;SDS011;12318;51.262;7.066;2023-02-08T12:49:26;5.15;;;2.78;;
24161;SDS011;12318;51.262;7.066;2023-02-08T12:52:28;6.28;;;2.83;;
24161;SDS011;12318;51.262;7.066;2023-02-08T12:55:29;5.72;;;2.50;;
24161;SDS011;12318;51.262;7.066;2023-02-08T13:00:37;5.32;;;2.17;;
24161;SDS011;12318;51.262;7.066;2023-02-08T13:05:39;5.90;;;2.20;;
24161;SDS011;12318;51.262;7.066;2023-02-08T13:08:38;3.67;;;2.50;;
24161;SDS011;12318;51.262;7.066;2023-02-08T13:11:32;3.47;;;1.90;;
24161;SDS011;12318;51.262;7.066;2023-02-08T13:17:29;4.05;;;2.25;;
24161;SDS011;12318;51.262;7.066;2023-02-08T13:23:03;3.95;;;2.30;;
24161;SDS011;12318;51.262;7.066;2023-02-08T13:25:43;4.25;;;2.53;;
24161;SDS011;12318;51.262;7.066;2023-02-08T13:28:40;3.78;;;2.67;;
24161;SDS011;12318;51.262;7.066;2023-02-08T13:31:37;7.75;;;2.60;;
24161;SDS011;12318;51.262;7.066;2023-02-08T13:37:22;4.13;;;2.83;;
24161;SDS011;12318;51.262;7.066;2023-02-08T13:46:45;4.40;;;2.33;;
24161;SDS011;12318;51.262;7.066;2023-02-08T13:52:47;3.63;;;2.25;;
24161;SDS011;12318;51.262;7.066;2023-02-08T14:07:00;4.72;;;2.00;;
24161;SDS011;12318;51.262;7.066;2023-02-08T14:12:26;3.53;;;2.05;;
24161;SDS011;12318;51.262;7.066;2023-02-08T14:16:19;4.60;;;2.22;;
24161;SDS011;12318;51.262;7.066;2023-02-08T14:18:57;2.95;;;1.73;;
24161;SDS011;12318;51.262;7.066;2023-02-08T14:21:30;9.23;;;2.58;;
24161;SDS011;12318;51.262;7.066;2023-02-08T14:24:00;6.07;;;2.33;;
24161;SDS011;12318;51.262;7.066;2023-02-08T14:26:29;30.38;;;4.30;;
24161;SDS011;12318;51.262;7.066;2023-02-08T14:28:56;5.47;;;2.58;;
24161;SDS011;12318;51.262;7.066;2023-02-08T14:31:41;3.42;;;2.25;;
24161;SDS011;12318;51.262;7.066;2023-02-08T14:34:42;5.20;;;2.60;;
24161;SDS011;12318;51.262;7.066;2023-02-08T14:42:04;4.80;;;2.28;;
24161;SDS011;12318;51.262;7.066;2023-02-08T14:49:38;3.20;;;2.00;;
24161;SDS011;12318;51.262;7.066;2023-02-08T14:52:13;3.58;;;1.90;;
24161;SDS011;12318;51.262;7.066;2023-02-08T14:55:06;5.03;;;2.40;;
24161;SDS011;12318;51.262;7.066;2023-02-08T14:57:36;5.85;;;2.35;;
24161;SDS011;12318;51.262;7.066;2023-02-08T15:00:22;3.17;;;1.98;;
24161;SDS011;12318;51.262;7.066;2023-02-08T15:02:53;6.13;;;2.28;;
24161;SDS011;12318;51.262;7.066;2023-02-08T15:05:22;4.88;;;2.10;;
24161;SDS011;12318;51.262;7.066;2023-02-08T15:07:59;5.53;;;2.28;;
24161;SDS011;12318;51.262;7.066;2023-02-08T15:10:26;3.92;;;2.28;;
24161;SDS011;12318;51.262;7.066;2023-02-08T15:12:58;4.57;;;2.33;;
24161;SDS011;12318;51.262;7.066;2023-02-08T15:18:21;3.50;;;2.00;;
24161;SDS011;12318;51.262;7.066;2023-02-08T15:21:14;7.95;;;2.15;;
24161;SDS011;12318;51.262;7.066;2023-02-08T15:23:59;3.35;;;2.00;;
24161;SDS011;12318;51.262;7.066;2023-02-08T15:26:26;3.97;;;2.10;;
24161;SDS011;12318;51.262;7.066;2023-02-08T15:28:53;4.13;;;1.98;;
24161;SDS011;12318;51.262;7.066;2023-02-08T15:31:20;3.92;;;2.13;;
24161;SDS011;12318;51.262;7.066;2023-02-08T15:33:51;9.00;;;2.28;;
24161;SDS011;12318;51.262;7.066;2023-02-08T15:36:24;2.85;;;1.90;;
24161;SDS011;12318;51.262;7.066;2023-02-08T15:38:54;9.23;;;2.30;;
24161;SDS011;12318;51.262;7.066;2023-02-08T15:41:29;4.30;;;2.42;;
24161;SDS011;12318;51.262;7.066;2023-02-08T15:44:17;5.28;;;2.15;;
24161;SDS011;12318;51.262;7.066;2023-02-08T15:46:47;4.03;;;2.17;;
24161;SDS011;12318;51.262;7.066;2023-02-08T15:49:16;4.93;;;2.20;;
24161;SDS011;12318;51.262;7.066;2023-02-08T15:51:52;4.03;;;2.03;;
24161;SDS011;12318;51.262;7.066;2023-02-08T15:54:21;9.85;;;2.28;;
24161;SDS011;12318;51.262;7.066;2023-02-08T15:56:52;4.68;;;2.25;;
24161;SDS011;12318;51.262;7.066;2023-02-08T15:59:27;5.57;;;2.90;;
24161;SDS011;12318;51.262;7.066;2023-02-08T16:01:56;5.32;;;2.80;;
24161;SDS011;12318;51.262;7.066;2023-02-08T16:04:24;8.88;;;2.33;;
24161;SDS011;12318;51.262;7.066;2023-02-08T16:06:51;4.05;;;2.30;;
24161;SDS011;12318;51.262;7.066;2023-02-08T16:09:21;5.90;;;2.35;;
24161;SDS011;12318;51.262;7.066;2023-02-08T16:11:52;7.32;;;2.13;;
24161;SDS011;12318;51.262;7.066;2023-02-08T16:14:21;3.67;;;2.08;;
24161;SDS011;12318;51.262;7.066;2023-02-08T16:16:54;4.72;;;2.13;;
24161;SDS011;12318;51.262;7.066;2023-02-08T16:19:28;5.63;;;2.30;;
24161;SDS011;12318;51.262;7.066;2023-02-08T16:21:56;3.92;;;2.30;;
24161;SDS011;12318;51.262;7.066;2023-02-08T16:24:42;3.45;;;2.05;;
24161;SDS011;12318;51.262;7.066;2023-02-08T16:27:18;7.72;;;2.40;;
24161;SDS011;12318;51.262;7.066;2023-02-08T16:29:50;4.10;;;2.20;;
24161;SDS011;12318;51.262;7.066;2023-02-08T16:32:27;4.43;;;2.15;;
24161;SDS011;12318;51.262;7.066;2023-02-08T16:34:55;3.88;;;2.25;;
24161;SDS011;12318;51.262;7.066;2023-02-08T16:39:54;6.05;;;2.40;;
24161;SDS011;12318;51.262;7.066;2023-02-08T16:42:29;5.07;;;3.10;;
24161;SDS011;12318;51.262;7.066;2023-02-08T16:50:27;5.13;;;2.72;;
24161;SDS011;12318;51.262;7.066;2023-02-08T16:52:53;4.50;;;2.78;;
24161;SDS011;12318;51.262;7.066;2023-02-08T16:55:24;9.00;;;3.15;;
24161;SDS011;12318;51.262;7.066;2023-02-08T16:57:53;4.65;;;2.85;;
24161;SDS011;12318;51.262;7.066;2023-02-08T17:00:26;5.05;;;2.65;;
24161;SDS011;12318;51.262;7.066;2023-02-08T17:02:53;8.10;;;2.72;;
24161;SDS011;12318;51.262;7.066;2023-02-08T17:05:21;5.75;;;2.70;;
24161;SDS011;12318;51.262;7.066;2023-02-08T17:07:48;10.48;;;3.08;;
24161;SDS011;12318;51.262;7.066;2023-02-08T17:10:24;5.70;;;3.20;;
24161;SDS011;12318;51.262;7.066;2023-02-08T17:12:52;7.50;;;3.80;;
24161;SDS011;12318;51.262;7.066;2023-02-08T17:15:18;7.00;;;3.47;;
24161;SDS011;12318;51.262;7.066;2023-02-08T17:17:49;7.30;;;3.08;;
24161;SDS011;12318;51.262;7.066;2023-02-08T17:20:22;4.93;;;2.97;;
24161;SDS011;12318;51.262;7.066;2023-02-08T17:22:50;10.95;;;3.60;;
24161;SDS011;12318;51.262;7.066;2023-02-08T17:25:17;5.88;;;3.28;;
24161;SDS011;12318;51.262;7.066;2023-02-08T17:27:45;6.40;;;3.50;;
24161;SDS011;12318;51.262;7.066;2023-02-08T17:30:33;5.65;;;3.20;;
24161;SDS011;12318;51.262;7.066;2023-02-08T17:32:57;7.90;;;3.65;;
24161;SDS011;12318;51.262;7.066;2023-02-08T17:35:24;7.15;;;3.60;;
24161;SDS011;12318;51.262;7.066;2023-02-08T17:37:52;6.47;;;3.28;;
24161;SDS011;12318;51.262;7.066;2023-02-08T17:40:20;7.10;;;3.03;;
24161;SDS011;12318;51.262;7.066;2023-02-08T17:42:47;7.22;;;3.42;;
24161;SDS011;12318;51.262;7.066;2023-02-08T17:45:16;5.57;;;3.00;;
24161;SDS011;12318;51.262;7.066;2023-02-08T17:47:41;7.18;;;3.33;;
24161;SDS011;12318;51.262;7.066;2023-02-08T17:50:08;9.15;;;3.55;;
24161;SDS011;12318;51.262;7.066;2023-02-08T17:56:05;6.38;;;3.40;;
24161;SDS011;12318;51.262;7.066;2023-02-08T17:58:33;6.05;;;3.00;;
24161;SDS011;12318;51.262;7.066;2023-02-08T18:01:00;6.97;;;2.92;;
24161;SDS011;12318;51.262;7.066;2023-02-08T18:03:26;6.70;;;2.60;;
24161;SDS011;12318;51.262;7.066;2023-02-08T18:05:56;5.70;;;2.92;;
24161;SDS011;12318;51.262;7.066;2023-02-08T18:08:25;6.32;;;3.42;;
24161;SDS011;12318;51.262;7.066;2023-02-08T18:10:51;5.82;;;3.08;;
24161;SDS011;12318;51.262;7.066;2023-02-08T18:13:18;5.28;;;2.70;;
24161;SDS011;12318;51.262;7.066;2023-02-08T18:15:44;4.68;;;2.67;;
24161;SDS011;12318;51.262;7.066;2023-02-08T18:18:11;5.70;;;2.90;;
24161;SDS011;12318;51.262;7.066;2023-02-08T18:20:41;5.50;;;2.97;;
24161;SDS011;12318;51.262;7.066;2023-02-08T18:23:08;10.00;;;3.10;;
24161;SDS011;12318;51.262;7.066;2023-02-08T18:25:34;6.57;;;3.30;;
24161;SDS011;12318;51.262;7.066;2023-02-08T18:28:00;6.25;;;3.22;;
24161;SDS011;12318;51.262;7.066;2023-02-08T18:30:25;7.80;;;3.30;;
24161;SDS011;12318;51.262;7.066;2023-02-08T18:32:52;5.50;;;2.67;;
24161;SDS011;12318;51.262;7.066;2023-02-08T18:35:18;6.32;;;2.90;;
24161;SDS011;12318;51.262;7.066;2023-02-08T18:37:44;7.85;;;3.38;;
24161;SDS011;12318;51.262;7.066;2023-02-08T18:40:14;6.93;;;3.00;;
24161;SDS011;12318;51.262;7.066;2023-02-08T18:42:41;7.25;;;3.35;;
24161;SDS011;12318;51.262;7.066;2023-02-08T18:45:07;7.53;;;3.53;;
24161;SDS011;12318;51.262;7.066;2023-02-08T18:47:34;6.03;;;3.60;;